Terminal Aerodrome Forecast
Issued by NWS

Home | Current Version | Previous Version | Text Only | Print | Product List | Glossary On
Versions: 1 2 3 4 5 6 7 8 9 10 11 12 13 14 15 16 17
972
FTUS43 KPAH 262320
TAFCGI
TAF
KCGI 262320Z 2700/2724 20003KT P6SM SCT250
     FM270800 00000KT 4SM BR FEW250
     FM271300 13003KT P6SM FEW040=

USA.gov is the U.S. government's official web portal to all federal, state and local government web resources and services.